createdAt,value
2023-05-19T00:00:59.937Z,25.00
2023-05-19T00:01:59.954Z,0.00
2023-05-19T00:03:00.032Z,0.00
2023-05-19T00:03:59.911Z,0.00
2023-05-19T00:04:59.905Z,0.00
2023-05-19T00:05:59.954Z,0.00
2023-05-19T00:06:59.892Z,2.11
2023-05-19T00:07:59.916Z,15.95
2023-05-19T00:08:59.925Z,23.37
2023-05-19T00:09:59.997Z,25.00
2023-05-19T00:11:00.057Z,25.00
2023-05-19T00:12:00.163Z,25.00
2023-05-19T00:13:00.195Z,23.02
2023-05-19T00:14:00.247Z,25.00
2023-05-19T00:15:00.306Z,25.00
2023-05-19T00:16:00.446Z,25.29
2023-05-19T00:17:00.413Z,25.42
2023-05-19T00:18:00.498Z,26.07
2023-05-19T00:19:00.643Z,26.54
2023-05-19T00:20:00.586Z,25.00
2023-05-19T00:21:00.640Z,26.34
2023-05-19T00:22:00.697Z,25.91
2023-05-19T00:23:00.770Z,25.59
2023-05-19T00:24:00.820Z,25.00
2023-05-19T00:25:00.924Z,26.00
2023-05-19T00:26:00.948Z,25.00
2023-05-19T00:27:00.986Z,25.53
2023-05-19T00:28:01.057Z,27.88
2023-05-19T00:29:01.090Z,25.74
2023-05-19T00:30:01.146Z,25.00
2023-05-19T00:31:01.200Z,25.33
2023-05-19T00:32:01.278Z,25.18
2023-05-19T00:33:01.394Z,27.40
2023-05-19T00:34:01.363Z,26.09
2023-05-19T00:35:01.443Z,25.00
2023-05-19T00:36:01.470Z,25.52
2023-05-19T00:37:01.533Z,25.70
2023-05-19T00:38:01.565Z,25.44
2023-05-19T00:39:01.631Z,25.05
2023-05-19T00:40:01.691Z,27.04
2023-05-19T00:41:01.737Z,25.79
2023-05-19T00:42:01.764Z,26.01
2023-05-19T00:43:01.827Z,25.59
2023-05-19T00:44:01.901Z,28.07
2023-05-19T00:45:01.937Z,26.79
2023-05-19T00:46:01.989Z,25.30
2023-05-19T00:47:02.277Z,26.87
2023-05-19T00:48:02.244Z,25.87
2023-05-19T00:49:02.203Z,26.55
2023-05-19T00:50:02.227Z,25.94
2023-05-19T00:51:02.564Z,27.06
2023-05-19T00:52:02.299Z,27.00
2023-05-19T00:53:02.357Z,26.45
2023-05-19T00:54:02.416Z,27.27
2023-05-19T00:55:02.444Z,25.73
2023-05-19T00:56:02.535Z,26.29
2023-05-19T00:57:02.558Z,26.86
2023-05-19T00:58:02.602Z,26.76
2023-05-19T00:59:02.655Z,27.60
2023-05-19T01:00:02.738Z,27.77
2023-05-19T01:01:02.814Z,26.68
2023-05-19T01:02:02.821Z,27.78
2023-05-19T01:03:03.014Z,27.58
2023-05-19T01:04:03.026Z,25.21
2023-05-19T01:05:02.988Z,26.06
2023-05-19T01:06:03.014Z,26.74
2023-05-19T01:07:03.083Z,26.02
2023-05-19T01:08:03.099Z,25.00
2023-05-19T01:09:03.151Z,25.96
2023-05-19T01:10:03.198Z,25.48
2023-05-19T01:11:03.275Z,29.34
2023-05-19T01:12:03.298Z,27.05
2023-05-19T01:13:03.352Z,27.13
2023-05-19T01:14:03.404Z,26.42
2023-05-19T01:15:03.475Z,28.96
2023-05-19T01:16:03.549Z,27.64
2023-05-19T01:17:03.564Z,27.56
2023-05-19T01:18:03.655Z,26.41
2023-05-19T01:19:03.679Z,25.31
2023-05-19T01:20:03.727Z,25.98
2023-05-19T01:21:03.788Z,27.33
2023-05-19T01:22:03.841Z,26.67
2023-05-19T01:23:03.886Z,27.42
2023-05-19T01:24:03.927Z,27.36
2023-05-19T01:25:03.989Z,25.22
2023-05-19T01:26:04.051Z,28.12
2023-05-19T01:27:04.102Z,27.32
2023-05-19T01:28:04.163Z,25.48
2023-05-19T01:29:04.203Z,27.00
2023-05-19T01:30:04.253Z,26.09
2023-05-19T01:31:04.317Z,25.00
2023-05-19T01:32:04.424Z,27.12
2023-05-19T01:33:04.452Z,26.78
2023-05-19T01:34:04.458Z,26.90
2023-05-19T01:35:04.518Z,26.10
2023-05-19T01:36:04.572Z,25.21
2023-05-19T01:37:04.627Z,26.97
2023-05-19T01:38:04.677Z,27.00
2023-05-19T01:39:04.717Z,26.32
2023-05-19T01:40:04.772Z,25.65
2023-05-19T01:41:04.834Z,27.98
2023-05-19T01:42:04.907Z,29.31
2023-05-19T01:43:04.936Z,28.75
2023-05-19T01:44:04.985Z,28.16
2023-05-19T01:45:05.040Z,27.82
2023-05-19T01:46:05.141Z,30.29
2023-05-19T01:47:05.155Z,29.64
2023-05-19T01:48:05.282Z,27.77
2023-05-19T01:49:05.263Z,29.04
2023-05-19T01:50:05.304Z,30.71
2023-05-19T01:51:05.402Z,28.26
2023-05-19T01:52:05.417Z,26.26
2023-05-19T01:53:05.460Z,26.13
2023-05-19T01:54:05.521Z,25.05
2023-05-19T01:55:05.574Z,28.21
2023-05-19T01:56:05.633Z,30.96
2023-05-19T01:57:05.696Z,28.37
2023-05-19T01:58:05.738Z,26.86
2023-05-19T01:59:05.789Z,27.62
2023-05-19T02:00:05.846Z,26.54
2023-05-19T02:01:05.903Z,26.89
2023-05-19T02:02:05.937Z,25.59
2023-05-19T02:03:06.034Z,28.28
2023-05-19T02:04:06.089Z,26.57
2023-05-19T02:05:06.076Z,28.45
2023-05-19T02:06:06.136Z,27.51
2023-05-19T02:07:06.184Z,28.18
2023-05-19T02:08:06.254Z,26.89
2023-05-19T02:09:06.272Z,28.27
2023-05-19T02:10:06.331Z,27.23
2023-05-19T02:11:06.382Z,27.38
2023-05-19T02:12:06.430Z,29.46
2023-05-19T02:13:06.470Z,30.30
2023-05-19T02:14:06.505Z,28.48
2023-05-19T02:15:06.588Z,26.90
2023-05-19T02:16:06.669Z,28.21
2023-05-19T02:17:06.667Z,30.25
2023-05-19T02:18:06.763Z,27.23
2023-05-19T02:19:06.837Z,29.28
2023-05-19T02:20:06.908Z,27.98
2023-05-19T02:21:06.872Z,28.91
2023-05-19T02:22:06.912Z,26.73
2023-05-19T02:23:06.958Z,27.49
2023-05-19T02:24:07.008Z,28.04
2023-05-19T02:25:07.066Z,25.97
2023-05-19T02:26:07.106Z,27.26
2023-05-19T02:27:07.154Z,29.04
2023-05-19T02:28:07.208Z,31.09
2023-05-19T02:29:07.247Z,27.66
2023-05-19T02:30:07.342Z,29.97
2023-05-19T02:31:07.343Z,27.61
2023-05-19T02:32:07.467Z,28.81
2023-05-19T02:33:07.598Z,27.82
2023-05-19T02:34:07.498Z,26.48
2023-05-19T02:35:07.566Z,26.85
2023-05-19T02:36:07.627Z,29.46
2023-05-19T02:37:07.698Z,26.38
2023-05-19T02:38:07.752Z,29.05
2023-05-19T02:39:07.758Z,27.52
2023-05-19T02:40:07.804Z,26.69
2023-05-19T02:41:07.868Z,28.74
2023-05-19T02:42:07.908Z,28.01
2023-05-19T02:43:07.966Z,29.25
2023-05-19T02:44:08.012Z,27.34
2023-05-19T02:45:08.076Z,29.24
2023-05-19T02:46:08.154Z,26.19
2023-05-19T02:47:08.163Z,27.23
2023-05-19T02:48:08.292Z,26.63
2023-05-19T02:49:08.285Z,26.82
2023-05-19T02:50:08.324Z,27.59
2023-05-19T02:51:08.367Z,29.01
2023-05-19T02:52:08.437Z,26.90
2023-05-19T02:53:08.468Z,28.58
2023-05-19T02:54:08.521Z,26.19
2023-05-19T02:55:08.558Z,27.71
2023-05-19T02:56:08.614Z,27.20
2023-05-19T02:57:08.655Z,28.03
2023-05-19T02:58:08.707Z,26.16
2023-05-19T02:59:08.765Z,29.62
2023-05-19T03:00:08.816Z,29.34
2023-05-19T03:01:08.869Z,28.08
2023-05-19T03:02:08.956Z,29.40
2023-05-19T03:03:09.005Z,27.88
2023-05-19T03:04:09.153Z,25.56
2023-05-19T03:05:09.074Z,26.99
2023-05-19T03:06:09.129Z,27.76
2023-05-19T03:07:09.179Z,26.79
2023-05-19T03:08:09.276Z,27.51
2023-05-19T03:09:09.292Z,27.12
2023-05-19T03:10:09.334Z,29.32
2023-05-19T03:11:09.386Z,26.80
2023-05-19T03:12:09.441Z,27.72
2023-05-19T03:13:09.491Z,28.01
2023-05-19T03:14:09.584Z,27.97
2023-05-19T03:15:09.595Z,27.51
2023-05-19T03:16:09.692Z,29.20
2023-05-19T03:17:09.716Z,27.36
2023-05-19T03:18:09.848Z,27.87
2023-05-19T03:19:09.897Z,27.86
2023-05-19T03:20:09.882Z,28.10
2023-05-19T03:21:09.941Z,27.68
2023-05-19T03:22:10.010Z,26.60
2023-05-19T03:23:10.043Z,27.08
2023-05-19T03:24:10.157Z,30.19
2023-05-19T03:25:10.145Z,29.11
2023-05-19T03:26:10.196Z,25.05
2023-05-19T03:27:10.257Z,25.88
2023-05-19T03:28:10.308Z,30.05
2023-05-19T03:29:10.362Z,25.99
2023-05-19T03:30:10.425Z,27.43
2023-05-19T03:31:10.468Z,27.98
2023-05-19T03:32:10.557Z,28.24
2023-05-19T03:33:10.701Z,28.55
2023-05-19T03:34:11.171Z,28.09
2023-05-19T03:35:10.676Z,27.47
2023-05-19T03:36:10.729Z,29.09
2023-05-19T03:37:10.770Z,26.43
2023-05-19T03:38:10.855Z,28.41
2023-05-19T03:39:10.873Z,25.23
2023-05-19T03:40:11.028Z,26.98
2023-05-19T03:41:10.980Z,27.51
2023-05-19T03:42:11.048Z,26.15
2023-05-19T03:43:11.091Z,29.97
2023-05-19T03:44:11.148Z,25.25
2023-05-19T03:45:11.203Z,26.03
2023-05-19T03:46:11.298Z,29.15
2023-05-19T03:47:11.312Z,25.00
2023-05-19T03:48:11.413Z,28.47
2023-05-19T03:49:11.429Z,27.02
2023-05-19T03:50:11.488Z,29.56
2023-05-19T03:51:11.546Z,29.19
2023-05-19T03:52:11.633Z,28.89
2023-05-19T03:53:11.657Z,29.61
2023-05-19T03:54:11.697Z,29.14
2023-05-19T03:55:11.758Z,28.10
2023-05-19T03:56:11.876Z,28.47
2023-05-19T03:57:11.880Z,27.98
2023-05-19T03:58:11.916Z,28.89
2023-05-19T03:59:11.967Z,26.33
2023-05-19T04:00:12.030Z,27.60
2023-05-19T04:01:12.082Z,27.59
2023-05-19T04:02:12.157Z,28.30
2023-05-19T04:03:12.397Z,29.21
2023-05-19T04:04:12.295Z,26.79
2023-05-19T04:05:12.319Z,28.42
2023-05-19T04:06:12.378Z,29.78
2023-05-19T04:07:12.427Z,28.54
2023-05-19T04:08:12.483Z,25.93
2023-05-19T04:09:12.539Z,26.88
2023-05-19T04:10:12.595Z,29.60
2023-05-19T04:11:12.667Z,27.79
2023-05-19T04:12:12.756Z,28.36
2023-05-19T04:13:12.762Z,27.77
2023-05-19T04:14:12.821Z,26.19
2023-05-19T04:15:12.872Z,28.17
2023-05-19T04:16:13.000Z,26.34
2023-05-19T04:17:12.976Z,28.94
2023-05-19T04:18:13.066Z,27.43
2023-05-19T04:19:13.151Z,30.31
2023-05-19T04:20:13.148Z,26.84
2023-05-19T04:21:13.211Z,26.41
2023-05-19T04:22:13.272Z,26.68
2023-05-19T04:23:13.333Z,29.91
2023-05-19T04:24:13.364Z,28.79
2023-05-19T04:25:13.412Z,28.09
2023-05-19T04:26:13.467Z,27.75
2023-05-19T04:27:13.512Z,27.18
2023-05-19T04:28:13.590Z,28.10
2023-05-19T04:29:13.625Z,27.89
2023-05-19T04:30:13.674Z,27.95
2023-05-19T04:31:13.778Z,27.22
2023-05-19T04:32:13.777Z,26.69
2023-05-19T04:33:13.899Z,26.15
2023-05-19T04:34:13.912Z,26.99
2023-05-19T04:35:13.947Z,26.35
2023-05-19T04:36:13.994Z,29.63
2023-05-19T04:37:14.110Z,26.38
2023-05-19T04:38:14.082Z,27.82
2023-05-19T04:39:14.124Z,27.84
2023-05-19T04:40:14.185Z,28.26
2023-05-19T04:41:14.231Z,28.22
2023-05-19T04:42:14.280Z,27.15
2023-05-19T04:43:14.359Z,27.69
2023-05-19T04:44:14.491Z,26.06
2023-05-19T04:45:14.416Z,27.15
2023-05-19T04:46:14.536Z,28.44
2023-05-19T04:47:14.525Z,25.50
2023-05-19T04:48:14.567Z,26.50
2023-05-19T04:49:14.625Z,25.94
2023-05-19T04:50:14.724Z,28.23
2023-05-19T04:51:14.718Z,27.46
2023-05-19T04:52:14.766Z,26.96
2023-05-19T04:53:14.808Z,26.29
2023-05-19T04:54:14.849Z,26.66
2023-05-19T04:55:14.900Z,29.19
2023-05-19T04:56:14.962Z,27.93
2023-05-19T04:57:15.007Z,28.54
2023-05-19T04:58:15.061Z,27.03
2023-05-19T04:59:15.091Z,26.70
2023-05-19T05:00:15.173Z,27.04
2023-05-19T05:01:15.197Z,26.68
2023-05-19T05:02:15.305Z,25.83
2023-05-19T05:03:15.386Z,28.48
2023-05-19T05:04:15.343Z,27.06
2023-05-19T05:05:15.406Z,25.64
2023-05-19T05:06:15.435Z,30.55
2023-05-19T05:07:15.487Z,28.53
2023-05-19T05:08:15.541Z,29.12
2023-05-19T05:09:15.597Z,31.58
2023-05-19T05:10:15.661Z,28.76
2023-05-19T05:11:15.689Z,29.95
2023-05-19T05:12:15.732Z,29.03
2023-05-19T05:13:15.784Z,27.85
2023-05-19T05:14:15.825Z,27.03
2023-05-19T05:15:15.895Z,29.82
2023-05-19T05:16:15.999Z,26.88
2023-05-19T05:17:15.964Z,26.18
2023-05-19T05:18:16.022Z,29.76
2023-05-19T05:19:16.115Z,27.69
2023-05-19T05:20:16.110Z,28.84
2023-05-19T05:21:16.154Z,25.84
2023-05-19T05:22:16.200Z,30.22
2023-05-19T05:23:17.190Z,25.26
2023-05-19T05:24:16.294Z,27.25
2023-05-19T05:25:16.354Z,25.05
2023-05-19T05:26:16.395Z,27.24
2023-05-19T05:27:16.438Z,26.05
2023-05-19T05:28:16.499Z,26.21
2023-05-19T05:29:16.545Z,28.20
2023-05-19T05:30:16.590Z,30.98
2023-05-19T05:31:16.633Z,28.17
2023-05-19T05:32:16.721Z,28.46
2023-05-19T05:33:16.953Z,29.82
2023-05-19T05:34:16.802Z,28.44
2023-05-19T05:35:16.843Z,27.00
2023-05-19T05:36:16.918Z,27.88
2023-05-19T05:37:16.938Z,28.21
2023-05-19T05:38:16.994Z,27.47
2023-05-19T05:39:17.043Z,28.29
2023-05-19T05:40:17.096Z,27.90
2023-05-19T05:41:17.159Z,26.83
2023-05-19T05:42:17.205Z,29.75
2023-05-19T05:43:17.251Z,27.22
2023-05-19T05:44:17.306Z,26.97
2023-05-19T05:45:17.352Z,29.21
2023-05-19T05:46:17.493Z,29.16
2023-05-19T05:47:17.460Z,27.01
2023-05-19T05:48:17.534Z,26.27
2023-05-19T05:49:17.561Z,28.21
2023-05-19T05:50:17.605Z,27.42
2023-05-19T05:51:17.655Z,28.95
2023-05-19T05:52:17.699Z,29.46
2023-05-19T05:53:17.760Z,25.61
2023-05-19T05:54:17.809Z,27.40
2023-05-19T05:55:17.855Z,27.97
2023-05-19T05:56:17.901Z,28.60
2023-05-19T05:57:17.950Z,27.87
2023-05-19T05:58:17.990Z,27.29
2023-05-19T05:59:18.047Z,28.05
2023-05-19T06:00:18.088Z,27.13
2023-05-19T06:01:18.151Z,30.24
2023-05-19T06:02:18.267Z,26.55
2023-05-19T06:03:18.342Z,28.23
2023-05-19T06:04:18.321Z,27.80
2023-05-19T06:05:18.452Z,27.57
2023-05-19T06:06:18.382Z,25.71
2023-05-19T06:07:18.436Z,27.65
2023-05-19T06:08:18.483Z,27.49
2023-05-19T06:09:18.540Z,28.35
2023-05-19T06:10:18.578Z,29.18
2023-05-19T06:11:18.614Z,27.93
2023-05-19T06:12:18.658Z,26.99
2023-05-19T06:13:18.704Z,26.79
2023-05-19T06:14:18.754Z,27.91
2023-05-19T06:15:18.807Z,28.30
2023-05-19T06:16:18.901Z,26.48
2023-05-19T06:17:18.885Z,29.33
2023-05-19T06:18:18.932Z,26.70
2023-05-19T06:19:19.041Z,28.28
2023-05-19T06:20:19.041Z,27.16
2023-05-19T06:21:19.085Z,28.84
2023-05-19T06:22:19.093Z,27.71
2023-05-19T06:23:19.135Z,28.10
2023-05-19T06:24:19.175Z,26.88
2023-05-19T06:25:19.229Z,26.72
2023-05-19T06:26:19.258Z,25.00
2023-05-19T06:27:19.286Z,28.62
2023-05-19T06:28:19.333Z,27.32
2023-05-19T06:29:19.368Z,25.79
2023-05-19T06:30:19.406Z,27.77
2023-05-19T06:31:19.486Z,27.50
2023-05-19T06:32:19.474Z,27.48
2023-05-19T06:33:19.507Z,26.38
2023-05-19T06:34:19.539Z,26.37
2023-05-19T06:35:19.566Z,27.82
2023-05-19T06:36:19.653Z,30.02
2023-05-19T06:37:19.652Z,28.98
2023-05-19T06:38:19.670Z,31.02
2023-05-19T06:39:19.699Z,29.63
2023-05-19T06:40:19.736Z,30.53
2023-05-19T06:41:19.771Z,31.30
2023-05-19T06:42:19.793Z,29.37
2023-05-19T06:43:19.827Z,28.76
2023-05-19T06:44:21.260Z,29.48
2023-05-19T06:45:19.901Z,28.52
2023-05-19T06:46:19.952Z,28.68
2023-05-19T06:47:20.008Z,30.61
2023-05-19T06:48:19.991Z,29.37
2023-05-19T06:49:20.032Z,30.23
2023-05-19T06:50:20.056Z,30.33
2023-05-19T06:51:20.093Z,30.21
2023-05-19T06:52:20.172Z,29.26
2023-05-19T06:53:20.162Z,27.99
2023-05-19T06:54:20.728Z,32.72
2023-05-19T06:55:20.215Z,30.65
2023-05-19T06:56:20.262Z,30.16
2023-05-19T06:57:20.269Z,30.47
2023-05-19T06:58:20.303Z,31.54
2023-05-19T06:59:20.343Z,30.08
2023-05-19T07:00:22.135Z,31.81
2023-05-19T07:01:20.379Z,32.04
2023-05-19T07:02:20.368Z,31.94
2023-05-19T07:03:20.426Z,32.53
2023-05-19T07:04:20.337Z,32.22
2023-05-19T07:05:20.334Z,32.67
2023-05-19T07:06:20.330Z,31.35
2023-05-19T07:07:20.328Z,31.19
2023-05-19T07:08:20.381Z,31.36
2023-05-19T07:09:20.300Z,31.69
2023-05-19T07:10:20.336Z,30.82
2023-05-19T07:11:20.293Z,30.54
2023-05-19T07:12:20.287Z,34.11
2023-05-19T07:13:20.285Z,28.89
2023-05-19T07:14:20.268Z,33.09
2023-05-19T07:15:20.265Z,32.68
2023-05-19T07:16:20.293Z,31.19
2023-05-19T07:17:21.249Z,33.11
2023-05-19T07:18:20.245Z,30.21
2023-05-19T07:19:20.289Z,33.58
2023-05-19T07:20:20.240Z,33.98
2023-05-19T07:21:20.225Z,34.77
2023-05-19T07:22:20.228Z,33.74
2023-05-19T07:23:20.221Z,30.47
2023-05-19T07:24:20.236Z,33.55
2023-05-19T07:25:20.218Z,33.41
2023-05-19T07:26:20.251Z,33.47
2023-05-19T07:27:20.287Z,34.29
2023-05-19T07:28:20.315Z,34.62
2023-05-19T07:29:20.346Z,34.23
2023-05-19T07:30:20.369Z,32.40
2023-05-19T07:31:20.403Z,32.22
2023-05-19T07:32:20.640Z,34.02
2023-05-19T07:33:20.460Z,34.70
2023-05-19T07:34:20.479Z,34.10
2023-05-19T07:35:20.556Z,34.02
2023-05-19T07:36:20.555Z,33.23
2023-05-19T07:37:20.567Z,35.78
2023-05-19T07:38:20.601Z,35.21
2023-05-19T07:39:20.685Z,33.99
2023-05-19T07:40:20.732Z,34.78
2023-05-19T07:41:20.678Z,34.56
2023-05-19T07:42:20.711Z,35.09
2023-05-19T07:43:20.739Z,32.55
2023-05-19T07:44:20.765Z,32.51
2023-05-19T07:45:20.786Z,34.68
2023-05-19T07:46:20.908Z,34.15
2023-05-19T07:47:20.817Z,36.90
2023-05-19T07:48:20.858Z,32.46
2023-05-19T07:49:20.876Z,34.87
2023-05-19T07:50:20.910Z,35.42
2023-05-19T07:51:20.938Z,35.03
2023-05-19T07:52:20.954Z,34.41
2023-05-19T07:53:20.976Z,33.79
2023-05-19T07:54:20.994Z,34.99
2023-05-19T07:55:21.021Z,34.95
2023-05-19T07:56:21.085Z,35.56
2023-05-19T07:57:21.085Z,35.80
2023-05-19T07:58:21.105Z,35.40
2023-05-19T07:59:21.139Z,37.78
2023-05-19T08:00:21.155Z,35.20
2023-05-19T08:01:21.190Z,33.62
2023-05-19T08:02:21.279Z,37.20
2023-05-19T08:03:21.435Z,35.11
2023-05-19T08:04:21.336Z,35.45
2023-05-19T08:05:21.297Z,38.25
2023-05-19T08:06:21.330Z,38.74
2023-05-19T08:07:21.366Z,38.23
2023-05-19T08:08:21.392Z,35.99
2023-05-19T08:09:21.424Z,38.50
2023-05-19T08:10:21.449Z,37.12
2023-05-19T08:11:21.531Z,37.77
2023-05-19T08:12:21.680Z,36.83
2023-05-19T08:13:21.555Z,37.50
2023-05-19T08:14:21.561Z,38.51
2023-05-19T08:15:21.592Z,36.52
2023-05-19T08:16:21.749Z,37.54
2023-05-19T08:17:21.638Z,38.74
2023-05-19T08:18:21.674Z,38.53
2023-05-19T08:19:21.918Z,38.93
2023-05-19T08:20:21.728Z,40.37
2023-05-19T08:21:21.767Z,39.26
2023-05-19T08:22:21.789Z,38.37
2023-05-19T08:23:21.813Z,38.26
2023-05-19T08:24:21.840Z,40.09
2023-05-19T08:25:21.859Z,40.17
2023-05-19T08:26:21.887Z,39.51
2023-05-19T08:27:21.926Z,40.28
2023-05-19T08:28:22.052Z,39.33
2023-05-19T08:29:21.997Z,38.21
2023-05-19T08:30:22.029Z,37.10
2023-05-19T08:31:22.063Z,39.25
2023-05-19T08:32:22.129Z,40.07
2023-05-19T08:33:22.085Z,39.72
2023-05-19T08:34:22.107Z,38.29
2023-05-19T08:35:22.143Z,40.30
2023-05-19T08:36:22.183Z,37.69
2023-05-19T08:37:22.187Z,38.37
2023-05-19T08:38:22.219Z,40.43
2023-05-19T08:39:22.245Z,40.73
2023-05-19T08:40:22.281Z,41.18
2023-05-19T08:41:22.311Z,43.11
2023-05-19T08:42:22.345Z,41.49
2023-05-19T08:43:22.394Z,40.51
2023-05-19T08:44:22.429Z,41.30
2023-05-19T08:45:22.425Z,40.01
2023-05-19T08:46:22.551Z,40.89
2023-05-19T08:47:22.484Z,42.17
2023-05-19T08:48:22.525Z,40.89
2023-05-19T08:49:24.219Z,40.76
2023-05-19T08:50:22.558Z,47.40
2023-05-19T08:51:22.565Z,43.57
2023-05-19T08:52:22.517Z,45.00
2023-05-19T08:53:33.381Z,42.34
2023-05-19T08:54:22.502Z,42.87
2023-05-19T08:55:22.507Z,44.08
2023-05-19T08:56:22.487Z,43.73
2023-05-19T08:57:22.482Z,44.87
2023-05-19T08:58:22.477Z,44.82
2023-05-19T08:59:22.480Z,41.85
2023-05-19T09:00:22.606Z,41.08
2023-05-19T09:01:22.476Z,42.24
2023-05-19T09:02:22.502Z,43.23
2023-05-19T09:03:24.027Z,41.76
2023-05-19T09:04:22.557Z,47.79
2023-05-19T09:05:22.480Z,51.09
2023-05-19T09:06:22.442Z,48.68
2023-05-19T09:07:22.435Z,44.76
2023-05-19T09:08:22.401Z,41.62
2023-05-19T09:09:22.404Z,44.34
2023-05-19T09:10:22.387Z,43.61
2023-05-19T09:11:22.387Z,45.88
2023-05-19T09:12:22.383Z,45.16
2023-05-19T09:13:22.376Z,45.05
2023-05-19T09:14:22.361Z,47.16
2023-05-19T09:15:22.355Z,43.39
2023-05-19T09:16:22.541Z,45.02
2023-05-19T09:17:22.369Z,42.36
2023-05-19T09:18:22.341Z,44.34
2023-05-19T09:19:22.379Z,43.03
2023-05-19T09:20:22.331Z,46.13
2023-05-19T09:21:22.344Z,44.71
2023-05-19T09:22:22.313Z,43.62
2023-05-19T09:23:22.301Z,44.20
2023-05-19T09:24:22.299Z,45.71
2023-05-19T09:25:22.330Z,45.61
2023-05-19T09:26:22.286Z,44.03
2023-05-19T09:27:22.278Z,45.02
2023-05-19T09:28:22.267Z,45.07
2023-05-19T09:29:22.259Z,44.66
2023-05-19T09:30:22.251Z,45.40
2023-05-19T09:31:22.244Z,41.97
2023-05-19T09:32:22.302Z,44.44
2023-05-19T09:33:22.337Z,45.51
2023-05-19T09:34:22.222Z,46.84
2023-05-19T09:35:22.227Z,49.50
2023-05-19T09:36:22.204Z,47.25
2023-05-19T09:37:22.204Z,48.83
2023-05-19T09:38:22.195Z,48.03
2023-05-19T09:39:22.186Z,46.45
2023-05-19T09:40:22.191Z,46.26
2023-05-19T09:41:22.187Z,48.83
2023-05-19T09:42:22.176Z,47.65
2023-05-19T09:43:22.162Z,48.33
2023-05-19T09:44:22.165Z,46.83
2023-05-19T09:45:22.166Z,46.47
2023-05-19T09:46:22.229Z,45.48
2023-05-19T09:47:22.225Z,45.89
2023-05-19T09:48:22.310Z,46.45
2023-05-19T09:49:22.254Z,46.61
2023-05-19T09:50:22.320Z,46.33
2023-05-19T09:51:22.284Z,47.33
2023-05-19T09:52:22.303Z,48.84
2023-05-19T09:53:22.331Z,45.41
2023-05-19T09:54:22.369Z,47.84
2023-05-19T09:55:22.357Z,47.07
2023-05-19T09:56:22.372Z,47.87
2023-05-19T09:57:22.397Z,45.13
2023-05-19T09:58:22.411Z,47.42
2023-05-19T09:59:22.480Z,46.51
2023-05-19T10:00:22.448Z,47.05
2023-05-19T10:01:22.517Z,47.14
2023-05-19T10:02:22.489Z,45.90
2023-05-19T10:03:22.499Z,47.31
2023-05-19T10:04:22.626Z,48.51
2023-05-19T10:05:22.773Z,45.36
2023-05-19T10:06:22.545Z,48.47
2023-05-19T10:07:22.557Z,48.44
2023-05-19T10:08:22.578Z,50.05
2023-05-19T10:09:22.580Z,50.23
2023-05-19T10:10:22.600Z,49.63
2023-05-19T10:11:22.622Z,49.49
2023-05-19T10:12:22.636Z,49.77
2023-05-19T10:13:22.648Z,49.03
2023-05-19T10:14:22.674Z,50.86
2023-05-19T10:15:23.361Z,50.85
2023-05-19T10:16:22.758Z,49.85
2023-05-19T10:17:22.705Z,50.03
2023-05-19T10:18:22.719Z,49.16
2023-05-19T10:19:22.805Z,50.67
2023-05-19T10:20:22.778Z,51.05
2023-05-19T10:21:22.824Z,50.07
2023-05-19T10:22:22.804Z,47.89
2023-05-19T10:23:22.865Z,51.11
2023-05-19T10:24:22.835Z,50.99
2023-05-19T10:25:22.847Z,49.74
2023-05-19T10:26:22.858Z,49.47
2023-05-19T10:27:22.879Z,51.95
2023-05-19T10:28:22.904Z,51.70
2023-05-19T10:29:22.934Z,53.18
2023-05-19T10:30:22.995Z,50.60
2023-05-19T10:31:23.005Z,48.31
2023-05-19T10:32:23.059Z,49.90
2023-05-19T10:33:23.028Z,51.66
2023-05-19T10:34:23.312Z,50.43
2023-05-19T10:35:23.091Z,52.14
2023-05-19T10:36:23.134Z,52.12
2023-05-19T10:37:23.092Z,54.64
2023-05-19T10:38:23.079Z,53.43
2023-05-19T10:39:23.119Z,51.44
2023-05-19T10:40:23.123Z,52.73
2023-05-19T10:41:23.169Z,51.93
2023-05-19T10:42:23.154Z,51.95
2023-05-19T10:43:23.173Z,53.71
2023-05-19T10:44:23.193Z,52.32
2023-05-19T10:45:23.198Z,51.86
2023-05-19T10:46:23.273Z,53.90
2023-05-19T10:47:23.238Z,54.62
2023-05-19T10:48:23.266Z,51.23
2023-05-19T10:49:23.291Z,53.20
2023-05-19T10:50:23.290Z,52.67
2023-05-19T10:51:23.308Z,53.38
2023-05-19T10:52:23.521Z,52.89
2023-05-19T10:53:23.336Z,51.46
2023-05-19T10:54:23.354Z,53.90
2023-05-19T10:55:23.365Z,55.22
2023-05-19T10:56:23.384Z,52.99
2023-05-19T10:57:23.395Z,52.71
2023-05-19T10:58:23.417Z,55.95
2023-05-19T10:59:23.438Z,54.49
2023-05-19T11:00:23.443Z,56.47
2023-05-19T11:01:23.544Z,53.67
2023-05-19T11:02:23.573Z,53.73
2023-05-19T11:03:24.455Z,56.03
2023-05-19T11:04:23.508Z,53.28
2023-05-19T11:05:23.514Z,54.46
2023-05-19T11:06:23.555Z,54.84
2023-05-19T11:07:23.552Z,54.42
2023-05-19T11:08:23.593Z,53.67
2023-05-19T11:10:22.571Z,58.29
2023-05-19T11:11:23.717Z,54.70
2023-05-19T11:12:24.559Z,58.03
2023-05-19T11:13:23.557Z,58.71
2023-05-19T11:14:23.565Z,59.11
2023-05-19T11:15:23.541Z,58.23
2023-05-19T11:16:23.565Z,57.65
2023-05-19T11:17:23.569Z,55.29
2023-05-19T11:18:23.559Z,54.98
2023-05-19T11:19:23.663Z,55.03
2023-05-19T11:20:23.592Z,55.89
2023-05-19T11:21:23.688Z,57.03
2023-05-19T11:22:23.618Z,56.21
2023-05-19T11:23:23.665Z,56.57
2023-05-19T11:24:23.675Z,56.97
2023-05-19T11:25:23.659Z,56.18
2023-05-19T11:26:23.670Z,56.13
2023-05-19T11:27:23.692Z,55.74
2023-05-19T11:28:23.705Z,56.12
2023-05-19T11:29:23.711Z,56.88
2023-05-19T11:30:23.721Z,55.76
2023-05-19T11:31:23.768Z,57.89
2023-05-19T11:32:23.869Z,57.20
2023-05-19T11:33:23.760Z,58.06
2023-05-19T11:34:23.769Z,55.27
2023-05-19T11:35:23.790Z,55.26
2023-05-19T11:36:23.789Z,57.20
2023-05-19T11:37:23.806Z,58.37
2023-05-19T11:38:23.817Z,56.63
2023-05-19T11:39:23.821Z,58.36
2023-05-19T11:40:23.950Z,55.37
2023-05-19T11:41:23.855Z,56.87
2023-05-19T11:42:23.860Z,56.47
2023-05-19T11:43:23.879Z,59.33
2023-05-19T11:44:23.873Z,55.07
2023-05-19T11:45:23.883Z,56.43
2023-05-19T11:46:23.974Z,58.44
2023-05-19T11:47:23.950Z,57.20
2023-05-19T11:48:24.072Z,54.17
2023-05-19T11:49:23.930Z,58.60
2023-05-19T11:50:23.943Z,57.10
2023-05-19T11:51:23.956Z,58.28
2023-05-19T11:52:23.952Z,57.70
2023-05-19T11:53:23.961Z,57.08
2023-05-19T11:54:23.966Z,57.29
2023-05-19T11:55:23.998Z,55.42
2023-05-19T11:56:24.019Z,57.79
2023-05-19T11:57:24.003Z,58.41
2023-05-19T11:58:23.998Z,58.25
2023-05-19T11:59:24.005Z,57.43
2023-05-19T12:00:24.002Z,58.50
2023-05-19T12:01:24.012Z,57.71
2023-05-19T12:02:24.093Z,57.63
2023-05-19T12:03:24.124Z,56.18
2023-05-19T12:04:24.021Z,58.78
2023-05-19T12:05:24.119Z,56.25
2023-05-19T12:06:24.058Z,56.87
2023-05-19T12:07:24.055Z,57.24
2023-05-19T12:08:24.045Z,58.02
2023-05-19T12:09:24.052Z,55.67
2023-05-19T12:10:24.064Z,59.74
2023-05-19T12:11:24.078Z,58.54
2023-05-19T12:12:24.132Z,60.29
2023-05-19T12:13:24.077Z,60.07
2023-05-19T12:14:24.083Z,58.77
2023-05-19T12:15:24.086Z,59.72
2023-05-19T12:16:24.123Z,59.42
2023-05-19T12:17:24.282Z,59.83
2023-05-19T12:18:24.102Z,57.17
2023-05-19T12:19:24.210Z,59.73
2023-05-19T12:20:24.120Z,59.42
2023-05-19T12:21:24.123Z,58.69
2023-05-19T12:22:24.119Z,59.10
2023-05-19T12:23:24.104Z,59.94
2023-05-19T12:24:24.098Z,60.64
2023-05-19T12:25:24.099Z,61.19
2023-05-19T12:26:24.084Z,59.85
2023-05-19T12:27:24.096Z,58.70
2023-05-19T12:28:24.103Z,59.13
2023-05-19T12:29:24.063Z,60.94
2023-05-19T12:30:24.061Z,60.77
2023-05-19T12:31:24.099Z,59.79
2023-05-19T12:32:24.094Z,62.74
2023-05-19T12:33:24.044Z,60.59
2023-05-19T12:34:24.026Z,59.60
2023-05-19T12:35:24.017Z,59.35
2023-05-19T12:36:24.015Z,59.70
2023-05-19T12:37:24.003Z,57.93
2023-05-19T12:38:24.004Z,59.26
2023-05-19T12:39:23.993Z,59.38
2023-05-19T12:40:23.997Z,59.93
2023-05-19T12:41:23.985Z,58.04
2023-05-19T12:42:23.982Z,60.09
2023-05-19T12:43:23.971Z,60.36
2023-05-19T12:44:24.020Z,59.82
2023-05-19T12:45:23.951Z,57.83
2023-05-19T12:46:24.016Z,59.31
2023-05-19T12:47:23.978Z,58.77
2023-05-19T12:48:23.936Z,59.98
2023-05-19T12:49:23.917Z,59.02
2023-05-19T12:50:23.914Z,59.98
2023-05-19T12:51:23.926Z,58.13
2023-05-19T12:52:23.901Z,58.30
2023-05-19T12:53:23.909Z,58.90
2023-05-19T12:54:23.942Z,59.06